sensor_id;sensor_type;location;lat;lon;timestamp;pressure;altitude;pressure_sealevel;temperature;humidity
51237;BME280;37312;47.550;18.818;2022-11-15T01:10:42;99534.75;;;1.82;100.00
51237;BME280;37312;47.550;18.818;2022-11-15T01:13:08;99532.09;;;1.82;100.00
51237;BME280;37312;47.550;18.818;2022-11-15T01:15:39;99520.16;;;1.86;100.00
51237;BME280;37312;47.550;18.818;2022-11-15T01:18:05;99519.97;;;2.04;100.00
51237;BME280;37312;47.550;18.818;2022-11-15T01:20:31;99517.94;;;2.14;100.00
51237;BME280;37312;47.550;18.818;2022-11-15T01:22:57;99524.75;;;2.08;100.00
51237;BME280;37312;47.550;18.818;2022-11-15T01:25:23;99508.63;;;2.10;100.00
51237;BME280;37312;47.550;18.818;2022-11-15T01:27:49;99512.31;;;2.17;100.00
51237;BME280;37312;47.550;18.818;2022-11-15T01:30:15;99513.13;;;2.09;100.00
51237;BME280;37312;47.550;18.818;2022-11-15T01:32:41;99513.28;;;2.08;100.00
51237;BME280;37312;47.550;18.818;2022-11-15T01:35:07;99518.78;;;2.06;100.00
51237;BME280;37312;47.550;18.818;2022-11-15T01:37:33;99518.94;;;2.05;100.00
51237;BME280;37312;47.550;18.818;2022-11-15T01:39:59;99515.31;;;2.06;100.00
51237;BME280;37312;47.550;18.818;2022-11-15T01:42:25;99510.63;;;2.16;100.00
51237;BME280;37312;47.550;18.818;2022-11-15T01:44:51;99504.63;;;2.22;100.00
51237;BME280;37312;47.550;18.818;2022-11-15T01:49:55;99509.78;;;2.24;100.00
51237;BME280;37312;47.550;18.818;2022-11-15T01:52:25;99496.81;;;2.29;100.00
51237;BME280;37312;47.550;18.818;2022-11-15T01:54:58;99500.59;;;2.35;100.00
51237;BME280;37312;47.550;18.818;2022-11-15T01:57:25;99501.09;;;2.38;100.00
51237;BME280;37312;47.550;18.818;2022-11-15T01:59:51;99507.09;;;2.40;100.00
51237;BME280;37312;47.550;18.818;2022-11-15T02:02:17;99504.06;;;2.43;100.00
51237;BME280;37312;47.550;18.818;2022-11-15T02:04:46;99501.72;;;2.48;100.00
51237;BME280;37312;47.550;18.818;2022-11-15T02:07:15;99503.09;;;2.44;100.00
51237;BME280;37312;47.550;18.818;2022-11-15T02:09:43;99499.94;;;2.41;100.00
51237;BME280;37312;47.550;18.818;2022-11-15T02:12:10;99496.78;;;2.37;100.00
51237;BME280;37312;47.550;18.818;2022-11-15T02:14:40;99487.97;;;2.37;100.00
51237;BME280;37312;47.550;18.818;2022-11-15T02:17:32;99489.81;;;2.36;100.00
51237;BME280;37312;47.550;18.818;2022-11-15T02:23:04;99482.66;;;2.45;100.00
51237;BME280;37312;47.550;18.818;2022-11-15T02:31:04;99470.00;;;2.47;100.00
51237;BME280;37312;47.550;18.818;2022-11-15T02:36:33;99466.28;;;2.17;100.00
51237;BME280;37312;47.550;18.818;2022-11-15T02:39:14;99457.69;;;2.06;100.00
51237;BME280;37312;47.550;18.818;2022-11-15T02:41:52;99460.50;;;2.05;100.00
51237;BME280;37312;47.550;18.818;2022-11-15T02:44:46;99461.22;;;1.91;100.00
51237;BME280;37312;47.550;18.818;2022-11-15T02:47:16;99462.03;;;1.83;100.00
51237;BME280;37312;47.550;18.818;2022-11-15T02:49:48;99457.06;;;1.80;100.00
51237;BME280;37312;47.550;18.818;2022-11-15T02:52:16;99463.88;;;1.66;100.00
51237;BME280;37312;47.550;18.818;2022-11-15T02:54:42;99456.78;;;1.58;100.00
51237;BME280;37312;47.550;18.818;2022-11-15T02:57:17;99443.50;;;1.58;100.00
51237;BME280;37312;47.550;18.818;2022-11-15T03:00:06;99454.44;;;1.55;100.00
51237;BME280;37312;47.550;18.818;2022-11-15T03:08:13;99444.97;;;1.53;100.00
51237;BME280;37312;47.550;18.818;2022-11-15T03:10:57;99451.47;;;1.50;100.00
51237;BME280;37312;47.550;18.818;2022-11-15T03:16:40;99438.66;;;1.54;100.00
51237;BME280;37312;47.550;18.818;2022-11-15T03:22:09;99428.53;;;1.49;100.00
51237;BME280;37312;47.550;18.818;2022-11-15T03:24:38;99434.53;;;1.59;100.00
51237;BME280;37312;47.550;18.818;2022-11-15T03:27:06;99430.53;;;1.63;100.00
51237;BME280;37312;47.550;18.818;2022-11-15T03:29:41;99424.88;;;1.66;100.00
51237;BME280;37312;47.550;18.818;2022-11-15T03:32:15;99418.25;;;1.71;100.00
51237;BME280;37312;47.550;18.818;2022-11-15T03:34:47;99410.75;;;1.82;100.00
51237;BME280;37312;47.550;18.818;2022-11-15T03:37:16;99406.75;;;1.95;100.00
51237;BME280;37312;47.550;18.818;2022-11-15T03:39:43;99412.22;;;2.01;100.00
51237;BME280;37312;47.550;18.818;2022-11-15T03:44:49;99407.97;;;2.23;100.00
51237;BME280;37312;47.550;18.818;2022-11-15T03:50:02;99395.91;;;2.04;100.00
51237;BME280;37312;47.550;18.818;2022-11-15T03:52:32;99394.56;;;2.08;100.00
51237;BME280;37312;47.550;18.818;2022-11-15T03:55:00;99395.62;;;1.99;100.00
51237;BME280;37312;47.550;18.818;2022-11-15T03:57:27;99401.28;;;1.88;100.00
51237;BME280;37312;47.550;18.818;2022-11-15T03:59:53;99408.91;;;1.83;100.00
51237;BME280;37312;47.550;18.818;2022-11-15T04:02:19;99401.28;;;1.88;100.00
51237;BME280;37312;47.550;18.818;2022-11-15T04:04:45;99400.16;;;1.74;100.00
51237;BME280;37312;47.550;18.818;2022-11-15T04:07:11;99408.28;;;1.73;100.00
51237;BME280;37312;47.550;18.818;2022-11-15T04:09:37;99413.59;;;1.64;100.00
51237;BME280;37312;47.550;18.818;2022-11-15T04:12:21;99407.97;;;1.59;100.00
51237;BME280;37312;47.550;18.818;2022-11-15T04:14:58;99412.13;;;1.62;100.00
51237;BME280;37312;47.550;18.818;2022-11-15T04:17:42;99414.47;;;1.57;100.00
51237;BME280;37312;47.550;18.818;2022-11-15T04:20:11;99412.78;;;1.56;100.00
51237;BME280;37312;47.550;18.818;2022-11-15T04:22:57;99411.97;;;1.55;100.00
51237;BME280;37312;47.550;18.818;2022-11-15T04:25:43;99415.63;;;1.54;100.00
51237;BME280;37312;47.550;18.818;2022-11-15T04:28:10;99410.12;;;1.56;100.00
51237;BME280;37312;47.550;18.818;2022-11-15T04:30:35;99417.28;;;1.63;100.00
51237;BME280;37312;47.550;18.818;2022-11-15T04:33:02;99425.91;;;1.57;100.00
51237;BME280;37312;47.550;18.818;2022-11-15T04:35:28;99419.41;;;1.60;100.00
51237;BME280;37312;47.550;18.818;2022-11-15T04:37:54;99423.75;;;1.61;100.00
51237;BME280;37312;47.550;18.818;2022-11-15T04:40:21;99419.56;;;1.66;100.00
51237;BME280;37312;47.550;18.818;2022-11-15T04:42:46;99411.97;;;1.63;100.00
51237;BME280;37312;47.550;18.818;2022-11-15T04:45:12;99404.47;;;1.67;100.00
51237;BME280;37312;47.550;18.818;2022-11-15T04:47:38;99405.63;;;1.64;100.00
51237;BME280;37312;47.550;18.818;2022-11-15T04:50:05;99391.53;;;1.64;100.00
51237;BME280;37312;47.550;18.818;2022-11-15T04:52:31;99388.88;;;1.64;100.00
51237;BME280;37312;47.550;18.818;2022-11-15T04:54:56;99382.84;;;1.86;100.00
51237;BME280;37312;47.550;18.818;2022-11-15T04:57:22;99387.28;;;2.02;100.00
51237;BME280;37312;47.550;18.818;2022-11-15T04:59:48;99390.75;;;2.11;100.00
51237;BME280;37312;47.550;18.818;2022-11-15T05:02:14;99393.25;;;2.13;100.00
51237;BME280;37312;47.550;18.818;2022-11-15T05:04:40;99381.28;;;2.08;100.00
51237;BME280;37312;47.550;18.818;2022-11-15T05:07:06;99391.25;;;2.06;100.00
51237;BME280;37312;47.550;18.818;2022-11-15T05:09:32;99386.28;;;2.03;100.00
51237;BME280;37312;47.550;18.818;2022-11-15T05:11:58;99394.09;;;2.05;100.00
51237;BME280;37312;47.550;18.818;2022-11-15T05:14:24;99391.78;;;2.02;100.00
51237;BME280;37312;47.550;18.818;2022-11-15T05:16:49;99381.97;;;2.02;100.00
51237;BME280;37312;47.550;18.818;2022-11-15T05:19:15;99382.63;;;2.04;100.00
51237;BME280;37312;47.550;18.818;2022-11-15T05:21:41;99379.97;;;2.04;100.00
51237;BME280;37312;47.550;18.818;2022-11-15T05:24:09;99375.28;;;2.15;100.00
51237;BME280;37312;47.550;18.818;2022-11-15T05:26:35;99374.50;;;2.37;100.00
51237;BME280;37312;47.550;18.818;2022-11-15T05:29:01;99366.72;;;2.36;100.00
51237;BME280;37312;47.550;18.818;2022-11-15T05:31:27;99370.38;;;2.35;100.00
51237;BME280;37312;47.550;18.818;2022-11-15T05:33:54;99365.56;;;2.30;100.00
51237;BME280;37312;47.550;18.818;2022-11-15T05:36:29;99364.59;;;2.31;100.00
51237;BME280;37312;47.550;18.818;2022-11-15T05:38:57;99354.09;;;2.38;100.00
51237;BME280;37312;47.550;18.818;2022-11-15T05:43:59;99355.75;;;2.62;100.00
51237;BME280;37312;47.550;18.818;2022-11-15T05:46:27;99347.13;;;2.60;100.00
51237;BME280;37312;47.550;18.818;2022-11-15T05:48:55;99342.66;;;2.60;100.00
51237;BME280;37312;47.550;18.818;2022-11-15T05:51:22;99343.78;;;2.66;100.00
51237;BME280;37312;47.550;18.818;2022-11-15T05:53:49;99341.59;;;2.69;100.00
51237;BME280;37312;47.550;18.818;2022-11-15T05:56:16;99349.16;;;2.81;100.00
51237;BME280;37312;47.550;18.818;2022-11-15T05:58:43;99351.41;;;2.92;100.00
51237;BME280;37312;47.550;18.818;2022-11-15T06:01:09;99347.91;;;2.91;100.00
51237;BME280;37312;47.550;18.818;2022-11-15T06:03:35;99345.97;;;2.85;100.00
51237;BME280;37312;47.550;18.818;2022-11-15T06:06:01;99356.41;;;2.87;100.00
51237;BME280;37312;47.550;18.818;2022-11-15T06:08:27;99352.66;;;2.81;100.00
51237;BME280;37312;47.550;18.818;2022-11-15T06:10:53;99347.50;;;2.80;100.00
51237;BME280;37312;47.550;18.818;2022-11-15T06:13:18;99358.63;;;2.83;100.00
51237;BME280;37312;47.550;18.818;2022-11-15T06:15:44;99356.06;;;2.90;100.00
51237;BME280;37312;47.550;18.818;2022-11-15T06:18:11;99364.81;;;2.99;100.00
51237;BME280;37312;47.550;18.818;2022-11-15T06:20:36;99368.00;;;3.17;100.00
51237;BME280;37312;47.550;18.818;2022-11-15T06:23:03;99374.91;;;3.26;100.00
51237;BME280;37312;47.550;18.818;2022-11-15T06:25:30;99357.47;;;3.24;100.00
51237;BME280;37312;47.550;18.818;2022-11-15T06:27:58;99357.62;;;3.22;100.00
51237;BME280;37312;47.550;18.818;2022-11-15T06:30:25;99352.59;;;3.27;100.00
51237;BME280;37312;47.550;18.818;2022-11-15T06:32:51;99363.88;;;3.29;100.00
51237;BME280;37312;47.550;18.818;2022-11-15T06:35:17;99361.88;;;3.31;100.00
51237;BME280;37312;47.550;18.818;2022-11-15T06:37:43;99364.81;;;3.37;100.00
51237;BME280;37312;47.550;18.818;2022-11-15T06:40:09;99367.41;;;3.45;100.00
51237;BME280;37312;47.550;18.818;2022-11-15T06:42:35;99368.59;;;3.42;100.00
51237;BME280;37312;47.550;18.818;2022-11-15T06:45:02;99375.13;;;3.40;100.00
51237;BME280;37312;47.550;18.818;2022-11-15T06:47:28;99376.31;;;3.37;100.00
51237;BME280;37312;47.550;18.818;2022-11-15T06:49:54;99382.09;;;3.41;100.00
51237;BME280;37312;47.550;18.818;2022-11-15T06:52:20;99375.94;;;3.40;100.00
51237;BME280;37312;47.550;18.818;2022-11-15T06:54:47;99374.22;;;3.47;100.00
51237;BME280;37312;47.550;18.818;2022-11-15T06:57:13;99374.38;;;3.46;100.00
51237;BME280;37312;47.550;18.818;2022-11-15T06:59:39;99369.53;;;3.49;100.00
51237;BME280;37312;47.550;18.818;2022-11-15T07:02:05;99360.34;;;3.52;100.00
51237;BME280;37312;47.550;18.818;2022-11-15T07:04:31;99353.75;;;3.63;100.00
51237;BME280;37312;47.550;18.818;2022-11-15T07:06:57;99349.25;;;3.63;100.00
51237;BME280;37312;47.550;18.818;2022-11-15T07:09:23;99346.22;;;3.81;100.00
51237;BME280;37312;47.550;18.818;2022-11-15T07:11:48;99349.16;;;4.01;100.00
51237;BME280;37312;47.550;18.818;2022-11-15T07:14:14;99347.50;;;4.00;100.00
51237;BME280;37312;47.550;18.818;2022-11-15T07:16:40;99345.03;;;3.99;100.00
51237;BME280;37312;47.550;18.818;2022-11-15T07:19:08;99343.66;;;4.03;100.00
51237;BME280;37312;47.550;18.818;2022-11-15T07:21:34;99343.66;;;4.03;100.00
51237;BME280;37312;47.550;18.818;2022-11-15T07:24:00;99341.91;;;4.10;100.00
51237;BME280;37312;47.550;18.818;2022-11-15T07:26:26;99338.03;;;4.12;100.00
51237;BME280;37312;47.550;18.818;2022-11-15T07:28:52;99335.38;;;4.12;100.00
51237;BME280;37312;47.550;18.818;2022-11-15T07:31:18;99338.19;;;4.26;100.00
51237;BME280;37312;47.550;18.818;2022-11-15T07:33:44;99342.41;;;4.35;100.00
51237;BME280;37312;47.550;18.818;2022-11-15T07:36:10;99340.00;;;4.40;100.00
51237;BME280;37312;47.550;18.818;2022-11-15T07:38:36;99341.09;;;4.46;100.00
51237;BME280;37312;47.550;18.818;2022-11-15T07:41:03;99347.50;;;4.51;100.00
51237;BME280;37312;47.550;18.818;2022-11-15T07:43:30;99342.97;;;4.52;100.00
51237;BME280;37312;47.550;18.818;2022-11-15T07:45:58;99343.56;;;4.47;100.00
51237;BME280;37312;47.550;18.818;2022-11-15T07:48:24;99349.53;;;4.49;100.00
51237;BME280;37312;47.550;18.818;2022-11-15T07:50:50;99347.31;;;4.53;100.00
51237;BME280;37312;47.550;18.818;2022-11-15T07:53:16;99333.53;;;4.49;100.00
51237;BME280;37312;47.550;18.818;2022-11-15T07:55:42;99336.19;;;4.49;100.00
51237;BME280;37312;47.550;18.818;2022-11-15T08:03:59;99350.75;;;4.90;100.00
51237;BME280;37312;47.550;18.818;2022-11-15T08:06:25;99348.03;;;5.05;100.00
51237;BME280;37312;47.550;18.818;2022-11-15T08:08:51;99351.28;;;5.00;100.00
51237;BME280;37312;47.550;18.818;2022-11-15T08:11:17;99341.50;;;5.07;100.00
51237;BME280;37312;47.550;18.818;2022-11-15T08:13:43;99339.88;;;5.13;100.00
51237;BME280;37312;47.550;18.818;2022-11-15T08:16:08;99337.91;;;5.21;100.00
51237;BME280;37312;47.550;18.818;2022-11-15T08:18:35;99329.34;;;5.33;100.00
51237;BME280;37312;47.550;18.818;2022-11-15T08:21:01;99324.13;;;5.46;100.00
51237;BME280;37312;47.550;18.818;2022-11-15T08:23:27;99320.75;;;5.66;100.00
51237;BME280;37312;47.550;18.818;2022-11-15T08:25:59;99316.69;;;5.76;100.00
51237;BME280;37312;47.550;18.818;2022-11-15T08:28:25;99309.06;;;5.73;100.00
51237;BME280;37312;47.550;18.818;2022-11-15T08:30:50;99312.78;;;5.72;100.00
51237;BME280;37312;47.550;18.818;2022-11-15T08:33:16;99319.50;;;5.61;100.00
51237;BME280;37312;47.550;18.818;2022-11-15T08:35:43;99312.84;;;5.51;100.00
51237;BME280;37312;47.550;18.818;2022-11-15T08:38:09;99312.25;;;5.55;100.00
51237;BME280;37312;47.550;18.818;2022-11-15T08:40:36;99295.88;;;5.65;100.00
51237;BME280;37312;47.550;18.818;2022-11-15T08:43:02;99297.13;;;5.69;100.00
51237;BME280;37312;47.550;18.818;2022-11-15T08:45:29;99292.59;;;5.70;100.00
51237;BME280;37312;47.550;18.818;2022-11-15T08:48:19;99285.13;;;5.93;100.00
51237;BME280;37312;47.550;18.818;2022-11-15T08:50:45;99277.59;;;6.10;100.00
51237;BME280;37312;47.550;18.818;2022-11-15T08:53:13;99276.81;;;6.16;100.00
51237;BME280;37312;47.550;18.818;2022-11-15T08:55:55;99274.31;;;6.15;100.00
51237;BME280;37312;47.550;18.818;2022-11-15T08:58:20;99266.53;;;6.20;100.00
51237;BME280;37312;47.550;18.818;2022-11-15T09:00:46;99268.63;;;6.31;100.00
51237;BME280;37312;47.550;18.818;2022-11-15T09:03:12;99268.84;;;6.36;100.00
51237;BME280;37312;47.550;18.818;2022-11-15T09:05:38;99262.66;;;6.29;100.00
51237;BME280;37312;47.550;18.818;2022-11-15T09:08:04;99269.63;;;6.23;100.00
51237;BME280;37312;47.550;18.818;2022-11-15T09:10:30;99265.50;;;6.21;100.00
51237;BME280;37312;47.550;18.818;2022-11-15T09:12:57;99276.22;;;6.28;100.00
51237;BME280;37312;47.550;18.818;2022-11-15T09:15:23;99283.03;;;6.37;100.00
51237;BME280;37312;47.550;18.818;2022-11-15T09:17:49;99287.16;;;6.46;100.00
51237;BME280;37312;47.550;18.818;2022-11-15T09:20:15;99286.56;;;6.57;100.00
51237;BME280;37312;47.550;18.818;2022-11-15T09:22:41;99281.66;;;7.01;100.00
51237;BME280;37312;47.550;18.818;2022-11-15T09:25:07;99280.41;;;7.30;100.00
51237;BME280;37312;47.550;18.818;2022-11-15T09:27:33;99290.66;;;7.60;100.00
51237;BME280;37312;47.550;18.818;2022-11-15T09:29:59;99288.34;;;7.90;100.00
51237;BME280;37312;47.550;18.818;2022-11-15T09:32:28;99275.72;;;7.97;100.00
51237;BME280;37312;47.550;18.818;2022-11-15T09:34:55;99280.03;;;7.98;100.00
51237;BME280;37312;47.550;18.818;2022-11-15T09:37:21;99284.00;;;7.89;100.00
51237;BME280;37312;47.550;18.818;2022-11-15T09:39:47;99280.94;;;7.85;100.00
51237;BME280;37312;47.550;18.818;2022-11-15T09:42:20;99282.56;;;7.80;100.00
51237;BME280;37312;47.550;18.818;2022-11-15T09:45:13;99278.50;;;7.64;100.00
51237;BME280;37312;47.550;18.818;2022-11-15T09:48:03;99277.06;;;7.55;100.00
51237;BME280;37312;47.550;18.818;2022-11-15T09:50:43;99267.56;;;7.65;100.00
51237;BME280;37312;47.550;18.818;2022-11-15T09:56:01;99265.72;;;7.66;100.00
51237;BME280;37312;47.550;18.818;2022-11-15T10:04:26;99251.72;;;7.57;100.00
51237;BME280;37312;47.550;18.818;2022-11-15T10:09:52;99234.59;;;7.65;100.00
51237;BME280;37312;47.550;18.818;2022-11-15T10:12:19;99229.94;;;7.92;100.00
51237;BME280;37312;47.550;18.818;2022-11-15T10:14:45;99235.44;;;8.10;100.00
51237;BME280;37312;47.550;18.818;2022-11-15T10:23:06;99218.16;;;8.31;100.00
51237;BME280;37312;47.550;18.818;2022-11-15T10:28:29;99209.47;;;8.43;100.00
51237;BME280;37312;47.550;18.818;2022-11-15T10:30:58;99208.03;;;8.33;100.00
51237;BME280;37312;47.550;18.818;2022-11-15T10:33:36;99198.41;;;8.26;100.00
51237;BME280;37312;47.550;18.818;2022-11-15T10:36:24;99198.84;;;8.16;100.00
51237;BME280;37312;47.550;18.818;2022-11-15T10:38:54;99194.38;;;8.10;100.00
51237;BME280;37312;47.550;18.818;2022-11-15T10:44:12;99198.78;;;8.29;100.00
51237;BME280;37312;47.550;18.818;2022-11-15T10:47:04;99197.19;;;8.22;100.00
51237;BME280;37312;47.550;18.818;2022-11-15T10:49:31;99193.13;;;8.12;100.00
51237;BME280;37312;47.550;18.818;2022-11-15T10:52:00;99187.31;;;8.15;100.00
51237;BME280;37312;47.550;18.818;2022-11-15T10:57:27;99185.81;;;8.26;100.00
51237;BME280;37312;47.550;18.818;2022-11-15T11:05:38;99173.19;;;8.27;100.00
51237;BME280;37312;47.550;18.818;2022-11-15T11:08:24;99152.94;;;8.31;100.00
51237;BME280;37312;47.550;18.818;2022-11-15T11:10:58;99155.78;;;8.43;100.00
51237;BME280;37312;47.550;18.818;2022-11-15T11:13:27;99151.19;;;8.50;100.00
51237;BME280;37312;47.550;18.818;2022-11-15T11:19:04;99151.97;;;8.57;100.00
51237;BME280;37312;47.550;18.818;2022-11-15T11:27:21;99147.97;;;8.41;100.00
51237;BME280;37312;47.550;18.818;2022-11-15T11:30:06;99148.94;;;8.47;100.00
51237;BME280;37312;47.550;18.818;2022-11-15T11:44:10;99124.63;;;8.42;100.00
51237;BME280;37312;47.550;18.818;2022-11-15T11:46:46;99118.44;;;8.41;100.00
51237;BME280;37312;47.550;18.818;2022-11-15T11:49:29;99117.34;;;8.49;100.00
51237;BME280;37312;47.550;18.818;2022-11-15T11:52:10;99119.16;;;8.55;100.00
51237;BME280;37312;47.550;18.818;2022-11-15T11:57:28;99109.66;;;8.21;100.00
51237;BME280;37312;47.550;18.818;2022-11-15T12:00:01;99104.16;;;8.15;100.00
51237;BME280;37312;47.550;18.818;2022-11-15T12:02:32;99093.69;;;8.07;100.00
51237;BME280;37312;47.550;18.818;2022-11-15T12:05:29;99097.91;;;7.97;100.00
51237;BME280;37312;47.550;18.818;2022-11-15T12:08:03;99084.53;;;7.90;100.00
51237;BME280;37312;47.550;18.818;2022-11-15T12:10:32;99082.34;;;7.80;100.00
51237;BME280;37312;47.550;18.818;2022-11-15T12:13:04;99081.00;;;7.64;100.00
51237;BME280;37312;47.550;18.818;2022-11-15T12:15:38;99082.47;;;7.54;100.00
51237;BME280;37312;47.550;18.818;2022-11-15T12:18:09;99081.09;;;7.44;100.00
51237;BME280;37312;47.550;18.818;2022-11-15T12:20:40;99087.16;;;7.26;100.00
51237;BME280;37312;47.550;18.818;2022-11-15T12:23:13;99079.91;;;7.27;100.00
51237;BME280;37312;47.550;18.818;2022-11-15T12:31:36;99059.59;;;7.13;100.00
51237;BME280;37312;47.550;18.818;2022-11-15T12:36:52;99043.72;;;7.11;100.00
51237;BME280;37312;47.550;18.818;2022-11-15T12:39:19;99051.75;;;7.11;100.00
51237;BME280;37312;47.550;18.818;2022-11-15T12:59:55;99034.38;;;7.65;100.00
51237;BME280;37312;47.550;18.818;2022-11-15T13:17:50;99015.03;;;7.57;100.00
51237;BME280;37312;47.550;18.818;2022-11-15T13:27:53;99028.59;;;7.30;100.00
51237;BME280;37312;47.550;18.818;2022-11-15T13:30:27;99017.22;;;7.35;100.00
51237;BME280;37312;47.550;18.818;2022-11-15T13:32:55;99003.19;;;7.39;100.00
51237;BME280;37312;47.550;18.818;2022-11-15T13:35:26;99003.56;;;7.49;100.00
51237;BME280;37312;47.550;18.818;2022-11-15T13:37:54;98995.59;;;7.68;100.00
51237;BME280;37312;47.550;18.818;2022-11-15T13:40:24;99003.37;;;7.76;100.00
51237;BME280;37312;47.550;18.818;2022-11-15T13:42:53;99008.50;;;7.78;100.00
51237;BME280;37312;47.550;18.818;2022-11-15T13:45:19;99001.91;;;7.80;100.00
51237;BME280;37312;47.550;18.818;2022-11-15T13:47:52;98991.84;;;7.76;100.00
51237;BME280;37312;47.550;18.818;2022-11-15T13:50:22;98987.87;;;7.78;100.00
51237;BME280;37312;47.550;18.818;2022-11-15T13:52:50;98984.75;;;7.81;100.00
51237;BME280;37312;47.550;18.818;2022-11-15T13:55:19;98960.47;;;7.76;100.00
51237;BME280;37312;47.550;18.818;2022-11-15T14:00:44;98960.62;;;7.56;100.00
51237;BME280;37312;47.550;18.818;2022-11-15T14:03:29;98958.16;;;7.55;100.00
51237;BME280;37312;47.550;18.818;2022-11-15T14:06:07;98948.91;;;7.50;100.00
51237;BME280;37312;47.550;18.818;2022-11-15T14:08:36;98948.31;;;7.48;100.00
51237;BME280;37312;47.550;18.818;2022-11-15T14:11:07;98943.81;;;7.42;100.00
51237;BME280;37312;47.550;18.818;2022-11-15T14:13:34;98941.97;;;7.43;100.00
51237;BME280;37312;47.550;18.818;2022-11-15T14:18:47;98947.38;;;7.36;100.00
51237;BME280;37312;47.550;18.818;2022-11-15T14:21:13;98950.81;;;7.43;100.00
51237;BME280;37312;47.550;18.818;2022-11-15T14:23:40;98947.38;;;7.36;100.00
51237;BME280;37312;47.550;18.818;2022-11-15T14:26:25;98952.72;;;7.36;100.00
51237;BME280;37312;47.550;18.818;2022-11-15T14:28:52;98950.91;;;7.30;100.00
51237;BME280;37312;47.550;18.818;2022-11-15T14:31:18;98950.13;;;7.23;100.00
51237;BME280;37312;47.550;18.818;2022-11-15T14:33:45;98943.78;;;7.17;100.00
51237;BME280;37312;47.550;18.818;2022-11-15T14:36:14;98941.31;;;7.16;100.00
51237;BME280;37312;47.550;18.818;2022-11-15T14:38:41;98939.25;;;7.18;100.00
51237;BME280;37312;47.550;18.818;2022-11-15T14:41:24;98945.09;;;7.08;100.00
51237;BME280;37312;47.550;18.818;2022-11-15T14:43:52;98943.09;;;6.97;100.00
51237;BME280;37312;47.550;18.818;2022-11-15T14:46:18;98944.13;;;6.89;100.00
51237;BME280;37312;47.550;18.818;2022-11-15T14:48:44;98938.59;;;6.84;100.00
51237;BME280;37312;47.550;18.818;2022-11-15T14:51:14;98930.41;;;6.79;100.00
51237;BME280;37312;47.550;18.818;2022-11-15T14:53:43;98928.38;;;6.74;100.00
51237;BME280;37312;47.550;18.818;2022-11-15T14:56:09;98931.06;;;6.67;100.00
51237;BME280;37312;47.550;18.818;2022-11-15T14:58:36;98933.75;;;6.67;100.00
51237;BME280;37312;47.550;18.818;2022-11-15T15:01:30;98935.19;;;6.63;100.00
51237;BME280;37312;47.550;18.818;2022-11-15T15:03:55;98927.16;;;6.63;100.00
51237;BME280;37312;47.550;18.818;2022-11-15T15:06:23;98933.94;;;6.66;100.00
51237;BME280;37312;47.550;18.818;2022-11-15T15:08:49;98931.91;;;6.61;100.00
51237;BME280;37312;47.550;18.818;2022-11-15T15:11:24;98932.75;;;6.55;100.00
51237;BME280;37312;47.550;18.818;2022-11-15T15:13:52;98932.56;;;6.50;100.00
51237;BME280;37312;47.550;18.818;2022-11-15T15:16:19;98919.03;;;6.38;100.00
51237;BME280;37312;47.550;18.818;2022-11-15T15:18:45;98916.38;;;6.32;100.00
51237;BME280;37312;47.550;18.818;2022-11-15T15:21:20;98908.56;;;6.30;100.00
51237;BME280;37312;47.550;18.818;2022-11-15T15:23:46;98916.78;;;6.29;100.00
51237;BME280;37312;47.550;18.818;2022-11-15T15:26:12;98900.72;;;6.29;100.00
51237;BME280;37312;47.550;18.818;2022-11-15T15:28:38;98896.84;;;6.31;100.00
51237;BME280;37312;47.550;18.818;2022-11-15T15:31:05;98900.94;;;6.34;100.00
51237;BME280;37312;47.550;18.818;2022-11-15T15:33:31;98899.53;;;6.31;100.00
51237;BME280;37312;47.550;18.818;2022-11-15T15:35:58;98903.22;;;6.30;100.00
51237;BME280;37312;47.550;18.818;2022-11-15T15:38:24;98899.09;;;6.34;100.00
51237;BME280;37312;47.550;18.818;2022-11-15T15:40:50;98905.41;;;6.46;100.00
51237;BME280;37312;47.550;18.818;2022-11-15T15:43:16;98915.69;;;6.50;100.00
51237;BME280;37312;47.550;18.818;2022-11-15T15:45:42;98912.44;;;6.41;100.00
51237;BME280;37312;47.550;18.818;2022-11-15T15:48:12;98911.41;;;6.42;100.00
51237;BME280;37312;47.550;18.818;2022-11-15T15:50:39;98916.56;;;6.37;100.00
51237;BME280;37312;47.550;18.818;2022-11-15T15:53:05;98915.12;;;6.34;100.00
51237;BME280;37312;47.550;18.818;2022-11-15T15:55:31;98915.59;;;6.24;100.00
51237;BME280;37312;47.550;18.818;2022-11-15T15:57:57;98912.69;;;6.19;100.00
51237;BME280;37312;47.550;18.818;2022-11-15T16:00:25;98904.91;;;6.11;100.00
51237;BME280;37312;47.550;18.818;2022-11-15T16:02:51;98908.22;;;6.07;100.00
51237;BME280;37312;47.550;18.818;2022-11-15T16:05:18;98906.19;;;6.02;100.00
51237;BME280;37312;47.550;18.818;2022-11-15T16:07:43;98909.03;;;5.94;100.00
51237;BME280;37312;47.550;18.818;2022-11-15T16:10:27;98906.56;;;5.92;100.00
51237;BME280;37312;47.550;18.818;2022-11-15T16:12:55;98910.72;;;5.95;100.00
51237;BME280;37312;47.550;18.818;2022-11-15T16:15:22;98918.28;;;5.91;100.00
51237;BME280;37312;47.550;18.818;2022-11-15T16:17:53;98912.53;;;5.88;100.00
51237;BME280;37312;47.550;18.818;2022-11-15T16:20:34;98915.44;;;5.86;100.00
51237;BME280;37312;47.550;18.818;2022-11-15T16:23:02;98913.78;;;5.78;100.00
51237;BME280;37312;47.550;18.818;2022-11-15T16:25:28;98909.47;;;5.77;100.00
51237;BME280;37312;47.550;18.818;2022-11-15T16:27:56;98915.62;;;5.71;100.00
51237;BME280;37312;47.550;18.818;2022-11-15T16:30:22;98901.66;;;5.69;100.00
51237;BME280;37312;47.550;18.818;2022-11-15T16:32:49;98902.09;;;5.66;100.00
51237;BME280;37312;47.550;18.818;2022-11-15T16:35:16;98898.19;;;5.62;100.00
51237;BME280;37312;47.550;18.818;2022-11-15T16:37:42;98899.22;;;5.61;100.00
51237;BME280;37312;47.550;18.818;2022-11-15T16:40:31;98898.59;;;5.59;100.00